createdAt,value
2018-12-15T00:01:18.887Z,34.23
2018-12-15T00:03:48.417Z,39.27
2018-12-15T00:06:18.476Z,40.83
2018-12-15T00:08:46.140Z,36.40
2018-12-15T00:11:14.101Z,33.93
2018-12-15T00:13:43.673Z,39.17
2018-12-15T00:16:11.199Z,39.30
2018-12-15T00:18:39.070Z,38.73
2018-12-15T00:21:06.683Z,35.70
2018-12-15T00:23:34.373Z,41.20
2018-12-15T00:26:01.914Z,35.83
2018-12-15T00:28:29.568Z,38.83
2018-12-15T00:30:57.151Z,39.33
2018-12-15T00:33:24.701Z,32.03
2018-12-15T00:35:52.304Z,42.70
2018-12-15T00:38:20.046Z,38.20
2018-12-15T00:40:47.557Z,37.80
2018-12-15T00:43:16.135Z,36.33
2018-12-15T00:45:43.736Z,39.67
2018-12-15T00:48:11.369Z,38.77
2018-12-15T00:50:39.076Z,34.53
2018-12-15T00:53:06.601Z,35.03
2018-12-15T00:55:34.093Z,39.20
2018-12-15T00:58:01.628Z,39.07
2018-12-15T01:00:29.257Z,40.63
2018-12-15T01:02:56.870Z,35.33
2018-12-15T01:05:24.565Z,37.87
2018-12-15T01:07:52.732Z,34.40
2018-12-15T01:10:20.402Z,37.20
2018-12-15T01:12:48.079Z,42.73
2018-12-15T01:15:17.722Z,37.90
2018-12-15T01:17:46.384Z,38.53
2018-12-15T01:20:13.889Z,37.13
2018-12-15T01:22:41.562Z,42.77
2018-12-15T01:25:09.218Z,35.33
2018-12-15T01:27:36.830Z,37.67
2018-12-15T01:30:04.737Z,39.97
2018-12-15T01:32:32.422Z,36.50
2018-12-15T01:34:59.914Z,35.67
2018-12-15T01:37:27.775Z,35.40
2018-12-15T01:39:55.569Z,44.40
2018-12-15T01:42:23.157Z,39.97
2018-12-15T01:44:50.749Z,35.40
2018-12-15T01:47:18.393Z,38.93
2018-12-15T01:49:47.008Z,37.97
2018-12-15T01:52:14.697Z,37.70
2018-12-15T01:54:42.207Z,32.33
2018-12-15T01:57:09.750Z,36.13
2018-12-15T01:59:37.413Z,39.23
2018-12-15T02:02:05.013Z,40.20
2018-12-15T02:04:32.566Z,36.00
2018-12-15T02:07:00.106Z,33.87
2018-12-15T02:09:28.872Z,36.33
2018-12-15T02:11:56.406Z,34.20
2018-12-15T02:14:24.086Z,39.13
2018-12-15T02:16:51.947Z,33.53
2018-12-15T02:19:19.485Z,37.73
2018-12-15T02:21:53.781Z,35.63
2018-12-15T02:24:21.390Z,38.13
2018-12-15T02:26:49.073Z,33.40
2018-12-15T02:29:16.843Z,35.70
2018-12-15T02:31:45.004Z,39.83
2018-12-15T02:34:12.802Z,35.50
2018-12-15T02:36:41.622Z,34.97
2018-12-15T02:39:09.285Z,35.47
2018-12-15T02:41:38.326Z,33.43
2018-12-15T02:44:05.941Z,33.07
2018-12-15T02:46:33.505Z,31.93
2018-12-15T02:49:01.199Z,34.90
2018-12-15T02:51:28.950Z,33.30
2018-12-15T02:53:56.442Z,38.63
2018-12-15T02:56:23.943Z,29.97
2018-12-15T02:58:51.809Z,34.77
2018-12-15T03:01:49.755Z,35.43
2018-12-15T03:04:17.248Z,34.17
2018-12-15T03:06:44.701Z,39.07
2018-12-15T03:09:12.260Z,33.57
2018-12-15T03:11:39.844Z,36.47
2018-12-15T03:14:07.438Z,35.60
2018-12-15T03:16:34.934Z,29.67
2018-12-15T03:19:10.638Z,35.60
2018-12-15T03:21:38.142Z,34.37
2018-12-15T03:24:05.653Z,34.10
2018-12-15T03:26:33.155Z,32.37
2018-12-15T03:29:00.682Z,34.37
2018-12-15T03:31:28.243Z,28.30
2018-12-15T03:33:55.733Z,28.50
2018-12-15T03:36:23.245Z,30.37
2018-12-15T03:38:51.519Z,34.83
2018-12-15T03:41:19.022Z,36.10
2018-12-15T03:43:46.593Z,32.03
2018-12-15T03:46:14.093Z,33.90
2018-12-15T03:48:41.591Z,34.53
2018-12-15T03:51:09.155Z,34.13
2018-12-15T03:53:36.669Z,34.67
2018-12-15T03:56:04.268Z,29.63
2018-12-15T03:58:31.849Z,32.20
2018-12-15T04:01:02.603Z,32.83
2018-12-15T04:03:31.485Z,29.10
2018-12-15T04:05:59.017Z,35.40
2018-12-15T04:08:26.517Z,28.63
2018-12-15T04:10:53.997Z,36.70
2018-12-15T04:13:21.575Z,34.60
2018-12-15T04:15:49.342Z,34.63
2018-12-15T04:18:17.073Z,29.43
2018-12-15T04:20:44.629Z,30.77
2018-12-15T04:23:12.330Z,32.50
2018-12-15T04:25:39.840Z,31.60
2018-12-15T04:28:07.498Z,31.30
2018-12-15T04:30:34.988Z,36.87
2018-12-15T04:33:02.883Z,30.13
2018-12-15T04:35:30.366Z,31.93
2018-12-15T04:37:57.992Z,28.40
2018-12-15T04:40:25.590Z,32.93
2018-12-15T04:42:53.536Z,29.20
2018-12-15T04:45:21.025Z,30.60
2018-12-15T04:47:48.509Z,33.00
2018-12-15T04:50:16.210Z,26.23
2018-12-15T04:52:43.807Z,26.97
2018-12-15T04:55:11.602Z,33.03
2018-12-15T04:57:39.281Z,27.80
2018-12-15T05:00:07.576Z,30.70
2018-12-15T05:02:35.168Z,29.90
2018-12-15T05:05:03.093Z,28.87
2018-12-15T05:07:30.789Z,27.13
2018-12-15T05:09:58.389Z,34.43
2018-12-15T05:12:25.935Z,33.30
2018-12-15T05:14:53.670Z,28.53
2018-12-15T05:17:21.264Z,29.17
2018-12-15T05:19:48.767Z,28.93
2018-12-15T05:22:16.774Z,28.50
2018-12-15T05:24:45.072Z,30.77
2018-12-15T05:27:14.064Z,28.70
2018-12-15T05:29:41.753Z,28.47
2018-12-15T05:32:09.276Z,30.60
2018-12-15T05:34:36.973Z,30.47
2018-12-15T05:37:04.469Z,29.80
2018-12-15T05:39:32.034Z,30.50
2018-12-15T05:41:59.566Z,27.40
2018-12-15T05:44:27.039Z,27.13
2018-12-15T05:46:54.574Z,31.37
2018-12-15T05:49:22.089Z,29.33
2018-12-15T05:51:49.572Z,32.97
2018-12-15T05:54:17.133Z,28.20
2018-12-15T05:56:44.679Z,31.33
2018-12-15T05:59:12.236Z,28.73
2018-12-15T06:01:39.830Z,28.73
2018-12-15T06:04:07.434Z,24.80
2018-12-15T06:06:34.893Z,32.43
2018-12-15T06:09:02.597Z,33.87
2018-12-15T06:11:32.670Z,26.60
2018-12-15T06:14:00.178Z,28.00
2018-12-15T06:16:27.920Z,30.17
2018-12-15T06:18:55.545Z,32.43
2018-12-15T06:21:23.116Z,29.73
2018-12-15T06:23:50.585Z,29.10
2018-12-15T06:26:18.452Z,28.87
2018-12-15T06:28:45.979Z,32.47
2018-12-15T06:31:13.653Z,32.23
2018-12-15T06:33:41.232Z,31.53
2018-12-15T06:36:08.705Z,33.63
2018-12-15T06:38:36.189Z,33.87
2018-12-15T06:41:03.891Z,30.77
2018-12-15T06:43:31.818Z,32.40
2018-12-15T06:45:59.777Z,31.37
2018-12-15T06:48:27.297Z,31.60
2018-12-15T06:50:54.809Z,33.47
2018-12-15T06:53:22.522Z,34.47
2018-12-15T06:55:50.006Z,30.17
2018-12-15T06:58:17.501Z,33.27
2018-12-15T07:00:44.961Z,36.20
2018-12-15T07:03:12.613Z,32.40
2018-12-15T07:05:40.561Z,34.40
2018-12-15T07:08:08.160Z,34.80
2018-12-15T07:10:36.009Z,35.30
2018-12-15T07:13:03.685Z,36.53
2018-12-15T07:15:31.194Z,33.67
2018-12-15T07:17:58.704Z,33.67
2018-12-15T07:20:26.190Z,34.37
2018-12-15T07:22:54.161Z,33.03
2018-12-15T07:25:23.090Z,34.30
2018-12-15T07:27:52.008Z,31.97
2018-12-15T07:30:19.933Z,35.90
2018-12-15T07:32:47.442Z,34.30
2018-12-15T07:35:14.973Z,36.67
2018-12-15T07:37:42.450Z,33.03
2018-12-15T07:40:09.981Z,36.97
2018-12-15T07:42:37.469Z,33.17
2018-12-15T07:45:05.919Z,37.17
2018-12-15T07:47:34.490Z,35.13
2018-12-15T07:50:02.005Z,38.10
2018-12-15T07:52:29.555Z,37.60
2018-12-15T07:54:57.072Z,37.13
2018-12-15T07:57:24.680Z,33.00
2018-12-15T07:59:52.213Z,40.50
2018-12-15T08:02:19.866Z,37.33
2018-12-15T08:04:47.580Z,35.73
2018-12-15T08:07:15.174Z,38.83
2018-12-15T08:09:42.814Z,36.97
2018-12-15T08:12:16.090Z,40.57
2018-12-15T08:14:43.958Z,36.70
2018-12-15T08:17:11.475Z,40.93
2018-12-15T08:19:38.974Z,36.03
2018-12-15T08:22:06.897Z,39.27
2018-12-15T08:24:34.542Z,38.93
2018-12-15T08:27:02.137Z,38.03
2018-12-15T08:29:29.623Z,37.27
2018-12-15T08:31:57.144Z,41.40
2018-12-15T08:34:25.007Z,39.10
2018-12-15T08:36:52.653Z,41.30
2018-12-15T08:39:20.299Z,40.50
2018-12-15T08:41:47.765Z,42.17
2018-12-15T08:44:15.352Z,36.50
2018-12-15T08:46:43.497Z,41.17
2018-12-15T08:49:12.100Z,39.90
2018-12-15T08:51:39.576Z,36.77
2018-12-15T08:54:07.278Z,42.33
2018-12-15T08:56:34.906Z,42.60
2018-12-15T08:59:02.545Z,40.60
2018-12-15T09:01:30.169Z,37.53
2018-12-15T09:03:57.829Z,43.90
2018-12-15T09:06:25.382Z,41.03
2018-12-15T09:08:53.318Z,42.60
2018-12-15T09:11:20.981Z,41.17
2018-12-15T09:13:48.559Z,38.57
2018-12-15T09:16:16.244Z,46.80
2018-12-15T09:18:44.665Z,43.80
2018-12-15T09:21:12.404Z,37.60
2018-12-15T09:23:40.686Z,39.67
2018-12-15T09:26:08.306Z,44.30
2018-12-15T09:28:35.864Z,44.77
2018-12-15T09:31:03.606Z,43.93
2018-12-15T09:33:31.224Z,44.83
2018-12-15T09:35:58.761Z,44.07
2018-12-15T09:38:26.318Z,45.13
2018-12-15T09:40:54.135Z,39.00
2018-12-15T09:43:21.684Z,41.97
2018-12-15T09:45:49.509Z,39.07
2018-12-15T09:48:17.160Z,45.90
2018-12-15T09:50:44.757Z,35.13
2018-12-15T09:53:12.527Z,43.30
2018-12-15T09:55:41.476Z,40.30
2018-12-15T09:58:09.424Z,37.93
2018-12-15T10:00:37.178Z,36.17
2018-12-15T10:03:04.752Z,40.48
2018-12-15T10:05:32.360Z,41.57
2018-12-15T10:07:59.942Z,40.00
2018-12-15T10:10:27.497Z,39.50
2018-12-15T10:12:55.166Z,39.10
2018-12-15T10:15:23.121Z,38.07
2018-12-15T10:17:50.638Z,39.30
2018-12-15T10:20:18.125Z,35.80
2018-12-15T10:22:45.635Z,40.13
2018-12-15T10:25:13.734Z,33.33
2018-12-15T10:27:41.258Z,35.73
2018-12-15T10:30:15.673Z,38.40
2018-12-15T10:32:49.021Z,37.93
2018-12-15T10:35:16.657Z,34.07
2018-12-15T10:37:44.786Z,36.90
2018-12-15T10:40:12.769Z,35.40
2018-12-15T10:42:40.643Z,32.60
2018-12-15T10:45:08.474Z,33.13
2018-12-15T10:47:36.305Z,32.60
2018-12-15T10:50:05.184Z,36.83
2018-12-15T10:52:33.695Z,31.60
2018-12-15T10:55:01.488Z,36.60
2018-12-15T10:57:30.085Z,34.00
2018-12-15T10:59:57.956Z,33.87
2018-12-15T11:02:25.585Z,34.50
2018-12-15T11:04:53.414Z,35.83
2018-12-15T11:07:21.033Z,30.60
2018-12-15T11:09:48.605Z,29.77
2018-12-15T11:12:16.399Z,33.10
2018-12-15T11:14:43.985Z,32.73
2018-12-15T11:17:11.513Z,28.37
2018-12-15T11:19:39.409Z,30.97
2018-12-15T11:22:07.117Z,30.67
2018-12-15T11:24:34.773Z,33.63
2018-12-15T11:27:02.272Z,31.23
2018-12-15T11:29:31.159Z,29.97
2018-12-15T11:31:58.745Z,34.17
2018-12-15T11:34:26.538Z,27.17
2018-12-15T11:36:54.696Z,26.97
2018-12-15T11:39:22.272Z,28.47
2018-12-15T11:41:50.017Z,31.40
2018-12-15T11:44:18.629Z,27.13
2018-12-15T11:46:47.377Z,33.07
2018-12-15T11:49:14.986Z,32.30
2018-12-15T11:51:42.643Z,34.57
2018-12-15T11:54:10.124Z,30.50
2018-12-15T11:56:37.835Z,30.53
2018-12-15T11:59:05.424Z,28.10
2018-12-15T12:01:33.186Z,27.00
2018-12-15T12:04:00.899Z,25.47
2018-12-15T12:06:28.706Z,28.33
2018-12-15T12:08:56.203Z,25.90
2018-12-15T12:11:24.030Z,25.23
2018-12-15T12:13:53.056Z,27.20
2018-12-15T12:16:20.769Z,27.60
2018-12-15T12:18:48.553Z,28.07
2018-12-15T12:21:16.132Z,28.60
2018-12-15T12:23:43.876Z,24.97
2018-12-15T12:26:13.818Z,28.57
2018-12-15T12:28:41.365Z,27.60
2018-12-15T12:31:09.069Z,26.73
2018-12-15T12:33:36.780Z,27.33
2018-12-15T12:36:04.363Z,26.70
2018-12-15T12:38:32.311Z,23.83
2018-12-15T12:41:00.092Z,23.07
2018-12-15T12:43:27.733Z,22.70
2018-12-15T12:45:55.510Z,23.20
2018-12-15T12:48:23.370Z,22.00
2018-12-15T12:50:51.000Z,23.07
2018-12-15T12:53:18.660Z,27.40
2018-12-15T12:55:46.406Z,24.90
2018-12-15T12:58:14.512Z,22.20
2018-12-15T13:00:42.154Z,21.77
2018-12-15T13:03:10.173Z,22.13
2018-12-15T13:05:37.925Z,20.73
2018-12-15T13:08:06.747Z,25.10
2018-12-15T13:10:34.383Z,19.67
2018-12-15T13:13:01.942Z,23.70
2018-12-15T13:15:29.609Z,20.70
2018-12-15T13:17:57.119Z,19.80
2018-12-15T13:20:24.610Z,21.43
2018-12-15T13:22:52.257Z,22.60
2018-12-15T13:25:19.810Z,18.30
2018-12-15T13:27:47.366Z,23.53
2018-12-15T13:30:15.319Z,18.77
2018-12-15T13:32:43.093Z,19.37
2018-12-15T13:35:10.737Z,18.37
2018-12-15T13:37:38.287Z,17.73
2018-12-15T13:40:06.912Z,19.77
2018-12-15T13:42:34.521Z,22.37
2018-12-15T13:45:02.040Z,20.27
2018-12-15T13:47:30.718Z,18.23
2018-12-15T13:49:58.597Z,19.63
2018-12-15T13:52:26.234Z,18.60
2018-12-15T13:54:53.793Z,19.80
2018-12-15T13:57:21.313Z,18.07
2018-12-15T13:59:48.809Z,20.77
2018-12-15T14:02:16.487Z,18.03
2018-12-15T14:04:43.992Z,22.03
2018-12-15T14:07:11.767Z,20.67
2018-12-15T14:09:40.227Z,21.00
2018-12-15T14:12:07.903Z,17.80
2018-12-15T14:14:35.701Z,19.57
2018-12-15T14:17:03.310Z,19.70
2018-12-15T14:19:30.888Z,18.30
2018-12-15T14:21:58.565Z,22.33
2018-12-15T14:24:26.063Z,19.53
2018-12-15T14:26:54.844Z,19.70
2018-12-15T14:29:22.570Z,18.80
2018-12-15T14:31:50.236Z,16.90
2018-12-15T14:34:17.701Z,19.87
2018-12-15T14:36:45.197Z,18.43
2018-12-15T14:39:12.814Z,17.63
2018-12-15T14:41:40.447Z,17.90
2018-12-15T14:44:08.341Z,18.27
2018-12-15T14:46:35.856Z,19.57
2018-12-15T14:49:03.501Z,20.27
2018-12-15T14:51:31.009Z,20.47
2018-12-15T14:53:58.498Z,19.20
2018-12-15T14:56:26.138Z,19.03
2018-12-15T14:58:53.688Z,20.10
2018-12-15T15:01:21.470Z,20.13
2018-12-15T15:03:49.164Z,19.60
2018-12-15T15:06:16.723Z,19.63
2018-12-15T15:08:44.207Z,21.67
2018-12-15T15:11:11.864Z,21.50
2018-12-15T15:13:39.364Z,20.43
2018-12-15T15:16:06.881Z,17.87
2018-12-15T15:18:34.597Z,20.60
2018-12-15T15:21:02.106Z,19.10
2018-12-15T15:23:29.671Z,19.20
2018-12-15T15:25:57.336Z,16.80
2018-12-15T15:28:24.863Z,19.80
2018-12-15T15:30:52.691Z,19.10
2018-12-15T15:33:20.283Z,18.00
2018-12-15T15:35:48.115Z,18.80
2018-12-15T15:38:16.090Z,21.83
2018-12-15T15:40:43.641Z,19.03
2018-12-15T15:43:11.204Z,21.60
2018-12-15T15:45:38.674Z,18.37
2018-12-15T15:48:06.253Z,19.30
2018-12-15T15:50:36.668Z,19.03
2018-12-15T15:53:03.709Z,21.90
2018-12-15T15:55:32.366Z,20.47
2018-12-15T15:58:00.111Z,28.20
2018-12-15T16:00:27.712Z,22.57
2018-12-15T16:02:55.952Z,24.80
2018-12-15T16:05:23.413Z,25.27
2018-12-15T16:07:51.153Z,26.53
2018-12-15T16:10:18.877Z,21.10
2018-12-15T16:12:46.425Z,25.93
2018-12-15T16:15:14.322Z,26.50
2018-12-15T16:17:41.942Z,26.73
2018-12-15T16:20:11.689Z,28.80
2018-12-15T16:22:39.465Z,24.53
2018-12-15T16:25:07.192Z,24.80
2018-12-15T16:27:34.820Z,28.23
2018-12-15T16:30:02.993Z,30.33
2018-12-15T16:32:30.917Z,25.70
2018-12-15T16:34:58.521Z,25.90
2018-12-15T16:37:26.017Z,29.50
2018-12-15T16:39:53.707Z,29.27
2018-12-15T16:42:21.371Z,25.10
2018-12-15T16:44:48.929Z,29.13
2018-12-15T16:47:16.736Z,27.20
2018-12-15T16:49:44.302Z,30.20
2018-12-15T16:52:11.957Z,28.50
2018-12-15T16:54:39.618Z,26.47
2018-12-15T16:57:07.352Z,26.50
2018-12-15T16:59:35.206Z,24.97
2018-12-15T17:02:02.719Z,28.30
2018-12-15T17:04:30.391Z,32.07
2018-12-15T17:06:57.987Z,24.87
2018-12-15T17:09:25.569Z,30.20
2018-12-15T17:11:53.145Z,24.70
2018-12-15T17:14:20.973Z,26.93
2018-12-15T17:16:48.455Z,25.50
2018-12-15T17:19:15.933Z,27.10
2018-12-15T17:21:43.398Z,25.40
2018-12-15T17:24:11.209Z,25.57
2018-12-15T17:26:38.665Z,24.37
2018-12-15T17:29:06.201Z,27.73
2018-12-15T17:31:33.906Z,23.83
2018-12-15T17:34:01.497Z,25.00
2018-12-15T17:36:29.854Z,28.70
2018-12-15T17:38:58.857Z,26.90
2018-12-15T17:41:26.511Z,24.50
2018-12-15T17:43:54.238Z,30.60
2018-12-15T17:46:22.317Z,24.40
2018-12-15T17:48:50.237Z,26.83
2018-12-15T17:51:18.153Z,30.30
2018-12-15T17:53:46.166Z,26.93
2018-12-15T17:56:14.186Z,27.00
2018-12-15T17:58:41.849Z,27.50
2018-12-15T18:01:09.360Z,27.30
2018-12-15T18:03:37.006Z,25.70
2018-12-15T18:06:04.697Z,24.17
2018-12-15T18:08:32.371Z,23.20
2018-12-15T18:10:59.868Z,24.60
2018-12-15T18:13:27.329Z,27.83
2018-12-15T18:15:55.400Z,25.73
2018-12-15T18:18:23.008Z,25.60
2018-12-15T18:20:50.492Z,25.43
2018-12-15T18:23:19.255Z,25.17
2018-12-15T18:25:46.897Z,27.60
2018-12-15T18:28:14.754Z,23.40
2018-12-15T18:30:43.726Z,23.52
2018-12-15T18:33:11.860Z,21.70
2018-12-15T18:35:39.357Z,21.73
2018-12-15T18:38:06.969Z,21.50
2018-12-15T18:40:35.646Z,21.77
2018-12-15T18:43:03.241Z,20.63
2018-12-15T18:45:30.920Z,23.67
2018-12-15T18:47:58.577Z,23.57
2018-12-15T18:50:26.167Z,19.63
2018-12-15T18:52:53.836Z,22.50
2018-12-15T18:55:21.605Z,22.07
2018-12-15T18:57:49.443Z,20.17
2018-12-15T19:00:17.221Z,20.67
2018-12-15T19:02:45.366Z,20.50
2018-12-15T19:05:13.406Z,20.53
2018-12-15T19:07:41.130Z,23.57
2018-12-15T19:10:09.083Z,21.80
2018-12-15T19:12:36.862Z,19.17
2018-12-15T19:15:06.856Z,21.77
2018-12-15T19:17:34.532Z,22.73
2018-12-15T19:20:02.310Z,25.27
2018-12-15T19:22:31.242Z,20.40
2018-12-15T19:24:58.862Z,24.17
2018-12-15T19:27:27.567Z,26.60
2018-12-15T19:29:57.488Z,25.40
2018-12-15T19:32:25.533Z,23.43
2018-12-15T19:34:53.209Z,24.73
2018-12-15T19:37:20.790Z,27.40
2018-12-15T19:39:49.299Z,23.40
2018-12-15T19:42:17.185Z,23.43
2018-12-15T19:44:44.966Z,26.27
2018-12-15T19:47:12.614Z,26.23
2018-12-15T19:49:40.507Z,26.73
2018-12-15T19:52:08.390Z,25.93
2018-12-15T19:54:35.863Z,25.23
2018-12-15T19:57:03.493Z,29.27
2018-12-15T19:59:30.978Z,29.37
2018-12-15T20:01:58.609Z,27.27
2018-12-15T20:04:26.152Z,25.87
2018-12-15T20:06:53.616Z,27.10
2018-12-15T20:09:21.125Z,29.00
2018-12-15T20:11:48.625Z,25.57
2018-12-15T20:14:16.550Z,27.80
2018-12-15T20:16:44.101Z,29.27
2018-12-15T20:19:11.753Z,24.00
2018-12-15T20:21:39.360Z,29.43
2018-12-15T20:24:08.242Z,27.87
2018-12-15T20:26:35.883Z,25.90
2018-12-15T20:29:05.043Z,28.20
2018-12-15T20:31:32.489Z,25.57
2018-12-15T20:34:01.183Z,25.40
2018-12-15T20:36:28.778Z,27.47
2018-12-15T20:38:56.313Z,28.10
2018-12-15T20:41:23.877Z,28.10
2018-12-15T20:43:51.369Z,27.13
2018-12-15T20:46:18.887Z,27.57
2018-12-15T20:48:46.642Z,26.87
2018-12-15T20:51:14.279Z,24.57
2018-12-15T20:53:42.258Z,26.03
2018-12-15T20:56:09.888Z,31.27
2018-12-15T20:58:37.354Z,30.33
2018-12-15T21:01:08.206Z,26.80
2018-12-15T21:03:35.710Z,27.43
2018-12-15T21:06:04.100Z,27.13
2018-12-15T21:08:31.580Z,26.30
2018-12-15T21:10:59.368Z,28.17
2018-12-15T21:13:26.867Z,26.50
2018-12-15T21:15:56.981Z,25.70
2018-12-15T21:18:25.857Z,27.23
2018-12-15T21:20:53.509Z,26.13
2018-12-15T21:23:21.185Z,28.30
2018-12-15T21:25:49.037Z,23.30
2018-12-15T21:28:16.613Z,26.80
2018-12-15T21:30:44.122Z,25.57
2018-12-15T21:33:11.642Z,25.10
2018-12-15T21:35:39.453Z,24.13
2018-12-15T21:38:07.665Z,25.00
2018-12-15T21:40:35.148Z,25.47
2018-12-15T21:43:02.805Z,23.80
2018-12-15T21:45:30.734Z,24.90
2018-12-15T21:47:58.242Z,23.27
2018-12-15T21:50:25.721Z,25.70
2018-12-15T21:52:53.253Z,23.87
2018-12-15T21:55:20.870Z,24.80
2018-12-15T21:57:48.536Z,27.57
2018-12-15T22:00:16.187Z,23.10
2018-12-15T22:02:45.872Z,24.27
2018-12-15T22:05:15.349Z,23.10
2018-12-15T22:07:42.942Z,23.67
2018-12-15T22:10:10.790Z,24.93
2018-12-15T22:12:38.356Z,25.87
2018-12-15T22:15:06.624Z,26.40
2018-12-15T22:17:34.610Z,25.50
2018-12-15T22:20:02.505Z,23.50
2018-12-15T22:22:30.161Z,22.73
2018-12-15T22:24:57.811Z,23.33
2018-12-15T22:27:25.283Z,25.30
2018-12-15T22:29:52.805Z,24.57
2018-12-15T22:32:20.346Z,25.23
2018-12-15T22:34:48.097Z,23.30
2018-12-15T22:37:15.693Z,22.20
2018-12-15T22:39:43.251Z,25.27
2018-12-15T22:42:10.957Z,23.17
2018-12-15T22:44:38.472Z,22.53
2018-12-15T22:47:06.644Z,21.80
2018-12-15T22:52:26.888Z,22.17
2018-12-15T22:54:54.373Z,22.17
2018-12-15T22:57:22.007Z,23.70
2018-12-15T22:59:49.633Z,24.17
2018-12-15T23:02:17.397Z,24.17
2018-12-15T23:04:44.925Z,23.07
2018-12-15T23:07:12.828Z,29.00
2018-12-15T23:09:40.398Z,24.00
2018-12-15T23:12:10.253Z,22.43
2018-12-15T23:14:37.886Z,23.40
2018-12-15T23:17:05.416Z,23.07
2018-12-15T23:19:33.180Z,26.60
2018-12-15T23:22:00.749Z,26.77
2018-12-15T23:24:28.322Z,23.83
2018-12-15T23:26:56.084Z,24.27
2018-12-15T23:29:23.617Z,24.70
2018-12-15T23:31:52.069Z,24.63
2018-12-15T23:34:19.589Z,24.20
2018-12-15T23:36:47.048Z,25.40
2018-12-15T23:39:14.599Z,25.90
2018-12-15T23:41:42.079Z,23.97
2018-12-15T23:44:09.576Z,23.40
2018-12-15T23:46:53.988Z,26.87
2018-12-15T23:49:21.472Z,26.07
2018-12-15T23:51:48.973Z,25.67
2018-12-15T23:54:16.450Z,26.50
2018-12-15T23:56:43.995Z,25.30
2018-12-15T23:59:11.459Z,22.73
